Time;durP1;ratioP1;P1;durP2;ratioP2;P2;SDS_P1;SDS_P2;PMS_P1;PMS_P2;Temp;Humidity;BMP_temperature;BMP_pressure;BME280_temperature;BME280_humidity;BME280_pressure;Samples;Min_cycle;Max_cycle;Signal;HPM_P1;HPM_P2
2022/11/29 00:01:34;;;;;;;49.30;14.40;;;6.60;99.90;;;;;;5018593;28;20087;-84
2022/11/29 00:04:00;;;;;;;62.30;16.40;;;6.60;99.90;;;;;;5017869;28;20157;-84
2022/11/29 00:06:29;;;;;;;52.95;14.98;;;6.60;99.90;;;;;;5023757;28;20164;-84
2022/11/29 00:08:58;;;;;;;37.20;13.35;;;6.50;99.90;;;;;;5020813;28;20100;-84
2022/11/29 00:14:16;;;;;;;27.98;12.13;;;6.50;99.90;;;;;;5022571;28;20465;-84
2022/11/29 00:16:42;;;;;;;34.15;14.38;;;6.50;99.90;;;;;;5018632;28;20096;-85
2022/11/29 00:19:11;;;;;;;24.23;13.43;;;6.30;99.90;;;;;;5021673;28;20504;-85
2022/11/29 00:21:38;;;;;;;28.15;13.55;;;6.40;99.90;;;;;;5021014;28;20159;-85
2022/11/29 00:24:04;;;;;;;24.17;12.75;;;6.40;99.90;;;;;;5010000;28;20041;-84
2022/11/29 00:26:29;;;;;;;22.77;12.00;;;6.40;99.90;;;;;;5021901;28;20103;-84
2022/11/29 00:28:55;;;;;;;22.13;12.65;;;6.50;99.90;;;;;;5017673;28;20046;-84
2022/11/29 00:31:24;;;;;;;29.23;12.63;;;6.50;99.90;;;;;;5018268;28;20127;-84
2022/11/29 00:33:50;;;;;;;20.42;12.10;;;6.40;99.90;;;;;;5024591;28;20415;-85
2022/11/29 00:36:16;;;;;;;23.83;12.43;;;6.40;99.90;;;;;;5039031;28;20076;-85
2022/11/29 00:38:42;;;;;;;33.22;13.88;;;6.40;99.90;;;;;;5046534;28;20338;-85
2022/11/29 00:41:08;;;;;;;61.85;15.45;;;6.50;99.90;;;;;;5046650;28;20262;-83
2022/11/29 00:43:34;;;;;;;46.45;14.15;;;6.50;99.90;;;;;;5040274;28;20042;-83
2022/11/29 00:46:00;;;;;;;59.65;15.13;;;6.40;99.90;;;;;;5027144;28;20048;-84
2022/11/29 00:48:26;;;;;;;56.80;14.45;;;6.50;99.90;;;;;;5029227;28;20048;-83
2022/11/29 00:50:52;;;;;;;43.22;12.75;;;6.40;99.90;;;;;;5027649;28;20049;-84
2022/11/29 00:53:18;;;;;;;56.30;13.40;;;6.50;99.90;;;;;;5033688;28;20106;-83
2022/11/29 00:55:46;;;;;;;41.20;14.57;;;6.40;99.90;;;;;;5018355;28;20037;-84
2022/11/29 00:58:12;;;;;;;34.65;13.68;;;6.40;99.90;;;;;;5037105;28;20072;-85
2022/11/29 01:00:37;;;;;;;43.60;15.00;;;6.50;99.90;;;;;;5020640;28;20508;-85
2022/11/29 01:03:03;;;;;;;37.47;13.75;;;6.30;99.90;;;;;;5021055;28;20041;-83
2022/11/29 01:05:30;;;;;;;47.25;14.65;;;6.40;99.90;;;;;;5020790;28;20076;-84
2022/11/29 01:07:56;;;;;;;40.97;13.90;;;6.30;99.90;;;;;;5018839;28;20053;-84
2022/11/29 01:10:22;;;;;;;41.80;13.90;;;6.30;99.90;;;;;;5018917;28;20114;-84
2022/11/29 01:12:48;;;;;;;29.73;12.10;;;6.30;99.90;;;;;;5019247;28;20045;-84
2022/11/29 01:15:13;;;;;;;29.00;13.73;;;6.40;99.90;;;;;;5020286;28;20046;-84
2022/11/29 01:17:39;;;;;;;31.33;13.90;;;6.40;99.90;;;;;;5020382;28;20053;-84
2022/11/29 01:20:08;;;;;;;30.33;12.82;;;6.40;99.90;;;;;;5016524;28;20040;-85
2022/11/29 01:22:37;;;;;;;32.67;13.07;;;6.40;99.90;;;;;;5020749;28;20048;-85
2022/11/29 01:25:04;;;;;;;21.35;12.30;;;6.40;99.90;;;;;;5016387;28;20505;-83
2022/11/29 01:27:30;;;;;;;19.85;12.35;;;6.30;99.90;;;;;;5016024;28;20056;-83
2022/11/29 01:29:56;;;;;;;17.50;11.93;;;6.30;99.90;;;;;;5022830;28;20412;-83
2022/11/29 01:32:21;;;;;;;18.60;11.60;;;6.20;99.90;;;;;;5018879;28;20096;-84
2022/11/29 01:34:47;;;;;;;18.80;11.43;;;6.30;99.90;;;;;;5020744;28;20040;-84
2022/11/29 01:37:13;;;;;;;21.48;12.10;;;6.20;99.90;;;;;;5020933;28;20522;-85
2022/11/29 01:39:38;;;;;;;20.88;11.75;;;6.30;99.90;;;;;;5022426;28;20463;-84
2022/11/29 01:42:04;;;;;;;22.70;12.15;;;6.30;99.90;;;;;;5014978;28;20037;-85
2022/11/29 01:44:30;;;;;;;19.42;11.85;;;6.20;99.90;;;;;;5021554;28;20033;-85
2022/11/29 01:46:56;;;;;;;18.27;11.68;;;6.30;99.90;;;;;;5020036;28;20107;-84
2022/11/29 01:49:28;;;;;;;16.23;11.00;;;6.30;99.90;;;;;;5020526;28;20057;-85
2022/11/29 01:52:05;;;;;;;21.40;12.75;;;6.20;99.90;;;;;;5016650;28;20041;-85
2022/11/29 01:54:34;;;;;;;21.30;11.88;;;6.10;99.90;;;;;;5017144;28;20125;-83
2022/11/29 01:57:04;;;;;;;17.80;11.63;;;6.20;99.90;;;;;;5017311;28;20462;-84
2022/11/29 01:59:30;;;;;;;22.65;11.38;;;6.20;99.90;;;;;;5019671;28;20443;-84
2022/11/29 02:02:03;;;;;;;21.70;11.13;;;6.10;99.90;;;;;;5018283;28;20104;-83
2022/11/29 02:04:34;;;;;;;19.00;11.38;;;6.00;99.90;;;;;;5021487;28;20511;-83
2022/11/29 02:07:00;;;;;;;20.67;10.75;;;6.00;99.90;;;;;;5015078;28;20060;-84
2022/11/29 02:09:25;;;;;;;18.60;11.40;;;6.00;99.90;;;;;;5019421;28;20533;-84
2022/11/29 02:12:12;;;;;;;17.75;11.20;;;6.10;99.90;;;;;;5017529;28;20052;-83
2022/11/29 02:14:49;;;;;;;16.83;11.25;;;6.00;99.90;;;;;;5020247;28;20617;-83
2022/11/29 02:17:36;;;;;;;28.85;12.40;;;6.10;99.90;;;;;;5020104;28;20433;-85
2022/11/29 02:20:29;;;;;;;36.60;11.90;;;6.00;99.90;;;;;;5018572;28;20053;-84
2022/11/29 02:23:00;;;;;;;71.65;13.77;;;6.00;99.90;;;;;;5019755;28;20492;-84
2022/11/29 02:25:51;;;;;;;106.13;15.88;;;6.00;99.90;;;;;;5016479;28;20128;-84
2022/11/29 02:28:29;;;;;;;119.13;15.00;;;5.90;99.90;;;;;;5017425;28;20412;-85
2022/11/29 02:31:15;;;;;;;105.13;13.50;;;5.90;99.90;;;;;;5016961;28;20045;-83
2022/11/29 02:33:44;;;;;;;96.57;14.10;;;5.90;99.90;;;;;;5020379;28;20061;-83
2022/11/29 02:36:27;;;;;;;98.00;14.32;;;5.80;99.90;;;;;;5017827;28;21396;-84
2022/11/29 02:39:22;;;;;;;92.90;14.02;;;5.90;99.90;;;;;;5017756;28;20042;-84
2022/11/29 02:42:20;;;;;;;69.78;13.20;;;5.90;99.90;;;;;;5018529;28;20052;-85
2022/11/29 02:45:09;;;;;;;109.97;14.27;;;5.80;99.90;;;;;;5011100;28;20095;-86
2022/11/29 02:47:52;;;;;;;81.43;12.00;;;5.80;99.90;;;;;;5012286;28;20044;-83
2022/11/29 02:50:30;;;;;;;74.65;12.73;;;5.70;99.90;;;;;;5019686;28;20122;-82
2022/11/29 02:53:21;;;;;;;65.22;12.43;;;5.70;99.90;;;;;;5032379;28;20056;-84
2022/11/29 02:56:12;;;;;;;58.95;11.65;;;5.60;99.90;;;;;;5058728;28;20043;-84
2022/11/29 02:59:21;;;;;;;74.25;13.18;;;5.70;99.90;;;;;;5030540;28;20127;-83
2022/11/29 03:02:14;;;;;;;92.32;13.77;;;5.80;99.90;;;;;;5010459;28;20046;-83
2022/11/29 03:04:52;;;;;;;57.37;12.00;;;5.70;99.90;;;;;;5021783;28;20239;-83
2022/11/29 03:07:34;;;;;;;55.50;11.82;;;5.60;99.90;;;;;;5016326;28;20077;-83
2022/11/29 03:10:22;;;;;;;75.90;13.13;;;5.60;99.90;;;;;;5019168;28;20854;-82
2022/11/29 03:12:50;;;;;;;69.70;14.00;;;5.60;99.90;;;;;;5019550;28;20095;-83
2022/11/29 03:15:24;;;;;;;66.28;12.60;;;5.60;99.90;;;;;;5024552;28;20054;-84
2022/11/29 03:18:18;;;;;;;51.22;12.20;;;5.60;99.90;;;;;;5025015;28;20071;-85
2022/11/29 03:21:23;;;;;;;63.03;12.32;;;5.60;99.90;;;;;;5019445;28;20038;-82
2022/11/29 03:24:17;;;;;;;55.58;12.27;;;5.60;99.90;;;;;;5024900;28;20056;-82
2022/11/29 03:26:50;;;;;;;27.13;11.27;;;5.60;99.90;;;;;;5013008;28;20049;-83
2022/11/29 03:29:27;;;;;;;22.88;10.48;;;5.60;99.90;;;;;;5021748;28;20492;-83
2022/11/29 03:32:17;;;;;;;25.88;11.35;;;5.50;99.90;;;;;;5020528;28;20479;-84
2022/11/29 03:35:01;;;;;;;22.77;11.27;;;5.60;99.90;;;;;;5020995;28;20136;-83
2022/11/29 03:38:17;;;;;;;20.55;11.45;;;5.60;99.90;;;;;;5015649;28;20088;-83
2022/11/29 03:41:29;;;;;;;19.58;11.13;;;5.40;99.90;;;;;;5010446;28;20077;-83
2022/11/29 03:44:23;;;;;;;17.10;10.13;;;5.40;99.90;;;;;;5022009;28;20060;-84
2022/11/29 03:47:05;;;;;;;19.10;10.93;;;5.50;99.90;;;;;;5011725;28;20056;-84
2022/11/29 03:49:36;;;;;;;18.80;10.80;;;5.50;99.90;;;;;;5008692;28;20443;-83
2022/11/29 03:52:22;;;;;;;19.40;11.18;;;5.50;99.90;;;;;;5006678;28;20046;-83
2022/11/29 03:55:25;;;;;;;22.92;11.27;;;5.50;99.90;;;;;;5010576;28;20500;-83
2022/11/29 03:58:25;;;;;;;19.88;10.57;;;5.50;99.90;;;;;;5003729;28;20037;-84
2022/11/29 04:01:11;;;;;;;25.85;10.90;;;5.60;99.90;;;;;;5020251;28;20045;-84
2022/11/29 04:03:51;;;;;;;19.13;10.73;;;5.60;99.90;;;;;;5022393;28;20064;-83
2022/11/29 04:06:20;;;;;;;23.02;11.25;;;5.50;99.90;;;;;;5020326;28;20037;-83
2022/11/29 04:09:10;;;;;;;21.80;11.32;;;5.50;99.90;;;;;;5019446;28;20056;-83
2022/11/29 04:12:03;;;;;;;22.17;11.60;;;5.50;99.90;;;;;;5018347;28;20132;-83
2022/11/29 04:14:50;;;;;;;22.20;11.60;;;5.60;99.90;;;;;;5019354;28;20041;-83
2022/11/29 04:17:36;;;;;;;26.50;12.00;;;5.60;99.90;;;;;;5016695;28;20058;-84
2022/11/29 04:20:28;;;;;;;27.17;12.05;;;5.50;99.90;;;;;;5023260;28;20052;-81
2022/11/29 04:23:05;;;;;;;23.98;11.68;;;5.60;99.90;;;;;;5023670;28;20067;-83
2022/11/29 04:26:10;;;;;;;28.20;13.70;;;5.60;99.90;;;;;;5020937;28;20045;-83
2022/11/29 04:29:09;;;;;;;24.15;12.68;;;5.50;99.90;;;;;;4983489;28;20053;-83
2022/11/29 04:31:50;;;;;;;26.63;12.60;;;5.60;99.90;;;;;;5000130;28;20053;-83
2022/11/29 04:34:19;;;;;;;22.40;12.52;;;5.60;99.90;;;;;;5018700;28;20120;-84
2022/11/29 04:36:44;;;;;;;28.30;13.20;;;5.50;99.90;;;;;;5018250;28;20059;-84
2022/11/29 04:39:31;;;;;;;28.92;12.88;;;5.60;99.90;;;;;;5021925;28;20109;-83
2022/11/29 04:42:15;;;;;;;33.58;13.70;;;5.50;99.90;;;;;;5017936;28;20037;-84
2022/11/29 04:45:07;;;;;;;33.60;13.60;;;5.50;99.90;;;;;;5018710;28;20037;-83
2022/11/29 04:47:47;;;;;;;29.85;13.93;;;5.60;99.90;;;;;;5018556;28;20045;-84
2022/11/29 04:50:43;;;;;;;35.88;13.10;;;5.50;99.90;;;;;;5015127;28;20489;-82
2022/11/29 04:53:29;;;;;;;25.52;13.68;;;5.50;99.90;;;;;;5022921;28;20037;-82
2022/11/29 04:56:21;;;;;;;30.52;13.05;;;5.50;99.90;;;;;;5017213;28;20041;-83
2022/11/29 04:59:15;;;;;;;23.98;12.13;;;5.40;99.90;;;;;;5011778;28;20144;-82
2022/11/29 05:01:41;;;;;;;;;;;5.40;99.90;;;;;;5018663;28;20052;-83
2022/11/29 05:04:15;;;;;;;26.65;12.52;;;5.50;99.90;;;;;;5020610;28;20248;-81
2022/11/29 05:07:13;;;;;;;25.52;11.80;;;5.40;99.90;;;;;;5016185;28;20397;-81
2022/11/29 05:09:41;;;;;;;22.63;11.45;;;5.40;99.90;;;;;;5021305;28;20049;-83
2022/11/29 05:12:58;;;;;;;29.10;12.25;;;5.30;99.90;;;;;;5019149;28;20061;-82
2022/11/29 05:16:01;;;;;;;38.05;12.52;;;5.20;99.90;;;;;;5009151;28;20472;-82
2022/11/29 05:18:55;;;;;;;51.92;12.68;;;5.20;99.90;;;;;;5013867;28;20048;-82
2022/11/29 05:21:45;;;;;;;24.95;10.98;;;5.20;99.90;;;;;;5019253;28;20440;-83
2022/11/29 05:24:10;;;;;;;29.58;12.13;;;5.20;99.90;;;;;;5019890;28;20504;-82
2022/11/29 05:26:45;;;;;;;22.55;11.32;;;5.10;99.90;;;;;;5018769;28;20156;-83
2022/11/29 05:29:45;;;;;;;25.98;11.57;;;5.10;99.90;;;;;;5015030;28;20057;-82
2022/11/29 05:32:22;;;;;;;21.20;11.93;;;5.10;99.90;;;;;;5011572;28;20088;-84
2022/11/29 05:34:59;;;;;;;20.40;11.55;;;5.10;99.90;;;;;;5015637;28;20140;-85
2022/11/29 05:37:31;;;;;;;29.60;13.00;;;5.00;99.90;;;;;;5020266;28;20042;-83
2022/11/29 05:40:23;;;;;;;25.92;13.23;;;5.10;99.90;;;;;;5017921;28;20236;-85
2022/11/29 05:43:14;;;;;;;25.23;11.73;;;5.00;99.90;;;;;;5016636;28;20095;-84
2022/11/29 05:45:45;;;;;;;27.83;12.98;;;5.00;99.90;;;;;;5018712;28;20037;-83
2022/11/29 05:48:37;;;;;;;26.20;11.63;;;5.00;99.90;;;;;;5019859;28;20061;-85
2022/11/29 05:51:13;;;;;;;23.25;11.25;;;4.90;99.90;;;;;;5008895;28;20041;-85
2022/11/29 05:53:43;;;;;;;23.08;10.77;;;4.90;99.90;;;;;;5019333;28;20055;-84
2022/11/29 05:56:12;;;;;;;27.50;12.98;;;4.90;99.90;;;;;;5011744;28;20157;-84
2022/11/29 05:59:11;;;;;;;30.50;13.68;;;4.90;99.90;;;;;;5009808;28;20052;-84
2022/11/29 06:02:00;;;;;;;24.15;12.73;;;5.00;99.90;;;;;;5013697;28;20128;-88
2022/11/29 06:04:56;;;;;;;20.67;10.57;;;4.90;99.90;;;;;;5009880;28;20137;-87
2022/11/29 06:07:27;;;;;;;21.55;12.07;;;4.90;99.90;;;;;;5016587;28;20117;-85
2022/11/29 06:10:10;;;;;;;24.00;12.45;;;4.90;99.90;;;;;;5015886;28;20497;-83
2022/11/29 06:12:36;;;;;;;28.85;12.73;;;5.00;99.90;;;;;;5015034;28;20056;-88
2022/11/29 06:15:42;;;;;;;32.72;12.32;;;4.90;99.90;;;;;;5016944;28;20481;-85
2022/11/29 06:18:46;;;;;;;27.15;12.48;;;4.90;99.90;;;;;;5016691;28;20086;-85
2022/11/29 06:21:27;;;;;;;34.00;13.55;;;5.00;99.90;;;;;;5017920;28;20053;-86
2022/11/29 06:24:40;;;;;;;28.65;13.23;;;5.00;99.90;;;;;;5019726;28;20068;-80
2022/11/29 06:27:38;;;;;;;27.17;13.07;;;5.00;99.90;;;;;;5012507;28;20151;-77
2022/11/29 06:30:12;;;;;;;24.00;11.32;;;5.00;99.90;;;;;;5015739;28;20294;-73
2022/11/29 06:32:42;;;;;;;30.95;12.15;;;5.10;99.90;;;;;;5015911;28;20099;-77
2022/11/29 06:35:29;;;;;;;28.25;11.88;;;5.10;99.90;;;;;;5019199;28;20112;-76
2022/11/29 06:37:59;;;;;;;26.48;12.77;;;5.00;99.90;;;;;;5012185;28;20050;-79
2022/11/29 06:40:25;;;;;;;30.23;12.93;;;5.10;99.90;;;;;;5013306;28;20114;-78
2022/11/29 06:42:51;;;;;;;33.20;12.60;;;5.00;99.90;;;;;;5014259;28;20045;-79
2022/11/29 06:45:17;;;;;;;29.15;12.93;;;5.00;99.90;;;;;;5011232;28;20072;-80
2022/11/29 06:47:48;;;;;;;27.63;12.23;;;5.10;99.90;;;;;;5017990;28;20573;-81
2022/11/29 06:50:28;;;;;;;35.60;12.85;;;5.10;99.90;;;;;;5036011;28;20258;-83
2022/11/29 06:53:14;;;;;;;32.25;12.90;;;5.00;99.90;;;;;;5019776;28;20049;-84
2022/11/29 06:55:50;;;;;;;30.25;12.82;;;5.10;99.90;;;;;;5025588;28;20054;-83
2022/11/29 06:58:41;;;;;;;40.97;11.65;;;5.20;99.90;;;;;;5028102;28;20049;-82
2022/11/29 07:01:31;;;;;;;31.42;12.55;;;5.20;99.90;;;;;;5034712;28;20250;-81
2022/11/29 07:04:32;;;;;;;33.33;12.60;;;5.30;99.90;;;;;;5035433;28;20089;-82
2022/11/29 07:06:58;;;;;;;36.45;11.65;;;5.30;99.90;;;;;;5005557;28;20046;-81
2022/11/29 07:09:29;;;;;;;29.52;12.85;;;5.30;99.90;;;;;;5017170;28;20108;-82
2022/11/29 07:11:54;;;;;;;32.80;11.48;;;5.30;99.90;;;;;;5012736;28;20045;-82
2022/11/29 07:14:20;;;;;;;31.30;12.57;;;5.30;99.90;;;;;;5021287;28;20105;-83
2022/11/29 07:17:21;;;;;;;34.60;12.82;;;5.20;99.90;;;;;;5020150;28;20420;-83
2022/11/29 07:19:52;;;;;;;31.42;12.30;;;5.40;99.90;;;;;;5012453;28;20038;-83
2022/11/29 07:22:26;;;;;;;34.40;12.85;;;5.20;99.90;;;;;;5014308;28;20046;-83
2022/11/29 07:25:15;;;;;;;25.75;11.32;;;5.20;99.90;;;;;;5018727;28;20125;-83
2022/11/29 07:28:15;;;;;;;31.05;11.63;;;5.30;99.90;;;;;;5016703;28;20046;-83
2022/11/29 07:31:06;;;;;;;31.85;11.77;;;5.30;99.90;;;;;;5021435;28;20065;-83
2022/11/29 07:34:10;;;;;;;29.90;11.68;;;5.20;99.90;;;;;;5015984;28;20092;-82
2022/11/29 07:36:44;;;;;;;32.83;11.88;;;5.30;99.90;;;;;;4991676;28;20073;-80
2022/11/29 07:39:22;;;;;;;31.80;12.10;;;5.20;99.90;;;;;;5015959;28;20413;-81
2022/11/29 07:42:02;;;;;;;41.63;12.30;;;5.30;99.90;;;;;;5014482;28;20038;-81
2022/11/29 07:44:45;;;;;;;32.20;11.80;;;5.30;99.90;;;;;;5015243;28;20120;-83
2022/11/29 07:47:11;;;;;;;33.33;12.48;;;5.40;99.90;;;;;;5013823;28;20456;-79
2022/11/29 07:49:36;;;;;;;36.85;12.00;;;5.40;99.90;;;;;;5027016;28;20022;-81
2022/11/29 07:52:02;;;;;;;41.25;13.07;;;5.40;99.90;;;;;;5037049;28;20021;-77
2022/11/29 07:54:29;;;;;;;38.08;11.85;;;5.30;99.90;;;;;;5034448;28;20034;-80
2022/11/29 07:56:55;;;;;;;35.70;11.75;;;5.40;99.90;;;;;;5018526;28;20049;-80
2022/11/29 07:59:21;;;;;;;35.08;10.80;;;5.40;99.90;;;;;;5016569;28;20053;-80
2022/11/29 08:01:46;;;;;;;34.78;11.48;;;5.40;99.90;;;;;;5019719;28;20393;-80
2022/11/29 08:04:13;;;;;;;27.73;10.07;;;5.30;99.90;;;;;;5022795;28;20045;-80
2022/11/29 08:06:38;;;;;;;31.70;9.55;;;5.40;99.90;;;;;;5023754;28;20334;-80
2022/11/29 08:09:06;;;;;;;32.45;9.85;;;5.40;99.90;;;;;;5020742;28;20065;-79
2022/11/29 08:11:32;;;;;;;27.55;9.57;;;5.40;99.90;;;;;;5019515;28;20615;-80
2022/11/29 08:14:02;;;;;;;30.17;10.32;;;5.40;99.90;;;;;;5016535;28;20041;-80
2022/11/29 08:16:28;;;;;;;26.95;8.57;;;5.40;99.90;;;;;;5021137;28;20049;-80
2022/11/29 08:18:53;;;;;;;31.85;9.07;;;5.40;99.90;;;;;;5021677;28;20045;-81
2022/11/29 08:21:19;;;;;;;28.25;9.02;;;5.50;99.90;;;;;;5017959;28;20045;-81
2022/11/29 08:23:49;;;;;;;22.13;7.90;;;5.40;99.90;;;;;;5016388;28;20044;-81
2022/11/29 08:26:16;;;;;;;25.60;7.43;;;5.40;99.90;;;;;;5016830;28;20048;-81
2022/11/29 08:28:41;;;;;;;21.55;7.78;;;5.40;99.90;;;;;;5016023;28;20049;-81
2022/11/29 08:31:09;;;;;;;28.00;7.57;;;5.50;99.90;;;;;;5017836;28;20048;-79
2022/11/29 08:33:37;;;;;;;26.70;7.70;;;5.50;99.90;;;;;;5016022;28;20049;-78
2022/11/29 08:36:13;;;;;;;25.95;6.40;;;5.60;99.90;;;;;;5019889;28;20050;-81
2022/11/29 08:38:39;;;;;;;23.30;7.30;;;5.50;99.90;;;;;;5019930;28;20521;-81
2022/11/29 08:41:09;;;;;;;26.10;7.68;;;5.60;99.90;;;;;;5015517;28;20059;-80
2022/11/29 08:43:35;;;;;;;29.55;8.07;;;5.70;99.90;;;;;;5007430;28;20049;-80
2022/11/29 08:46:01;;;;;;;26.75;7.38;;;5.80;99.90;;;;;;5020696;28;20041;-81
2022/11/29 08:48:27;;;;;;;31.65;7.43;;;5.90;99.90;;;;;;5018371;28;20045;-81
2022/11/29 08:50:54;;;;;;;28.48;7.50;;;5.90;99.90;;;;;;5017605;28;20095;-80
2022/11/29 08:56:04;;;;;;;30.38;8.50;;;6.10;99.90;;;;;;5015642;28;20072;-81
2022/11/29 08:58:30;;;;;;;35.03;7.53;;;6.30;99.90;;;;;;5016369;28;20037;-80
2022/11/29 09:00:55;;;;;;;21.83;7.07;;;6.40;99.90;;;;;;5018385;28;20052;-80
2022/11/29 09:06:11;;;;;;;26.05;7.32;;;6.60;99.90;;;;;;5017972;28;20037;-80
2022/11/29 09:08:37;;;;;;;19.63;6.60;;;6.70;99.90;;;;;;5019743;28;20037;-80
2022/11/29 09:11:13;;;;;;;23.92;7.15;;;6.80;99.90;;;;;;5018686;28;20049;-80
2022/11/29 09:13:44;;;;;;;28.90;8.25;;;6.80;99.90;;;;;;5015905;28;21477;-80
2022/11/29 09:16:13;;;;;;;35.45;8.85;;;6.90;99.90;;;;;;5015443;28;20056;-80
2022/11/29 09:18:40;;;;;;;27.30;7.40;;;7.00;99.90;;;;;;5024582;28;20050;-81
2022/11/29 09:21:12;;;;;;;28.27;8.13;;;7.00;99.90;;;;;;5020067;28;20493;-81
2022/11/29 09:23:39;;;;;;;33.05;7.40;;;7.10;99.90;;;;;;5017184;28;21624;-81
2022/11/29 09:26:07;;;;;;;29.13;8.10;;;7.10;99.90;;;;;;5017497;28;20504;-80
2022/11/29 09:28:34;;;;;;;26.65;8.27;;;7.20;99.90;;;;;;5018527;28;20041;-81
2022/11/29 09:31:04;;;;;;;27.25;7.28;;;7.10;99.90;;;;;;5018472;28;20103;-81
2022/11/29 09:33:30;;;;;;;30.13;8.23;;;7.20;99.90;;;;;;5019136;28;20037;-80
2022/11/29 09:35:57;;;;;;;31.38;8.88;;;7.30;99.90;;;;;;5017975;28;20060;-81
2022/11/29 09:38:23;;;;;;;35.47;9.32;;;7.50;99.90;;;;;;5011795;28;20128;-81
2022/11/29 09:41:00;;;;;;;33.22;7.85;;;7.50;99.90;;;;;;5018982;28;20045;-81
2022/11/29 09:43:36;;;;;;;28.48;7.57;;;7.60;99.90;;;;;;5019081;28;20129;-81
2022/11/29 09:46:28;;;;;;;32.25;7.85;;;7.60;99.90;;;;;;5008611;28;20108;-81
2022/11/29 09:49:06;;;;;;;34.78;8.60;;;7.60;99.90;;;;;;5018257;28;20037;-80
2022/11/29 09:51:50;;;;;;;37.50;7.57;;;7.80;99.90;;;;;;5010497;28;20270;-80
2022/11/29 09:54:44;;;;;;;21.63;6.93;;;7.70;99.90;;;;;;5013371;28;20045;-80
2022/11/29 09:57:10;;;;;;;35.10;8.20;;;7.80;99.90;;;;;;5018241;28;20055;-80
2022/11/29 09:59:41;;;;;;;31.30;7.50;;;7.90;99.90;;;;;;5017846;28;20042;-80
2022/11/29 10:02:36;;;;;;;33.92;7.25;;;8.00;99.90;;;;;;5017424;28;20056;-80
2022/11/29 10:05:28;;;;;;;42.92;8.10;;;7.90;99.90;;;;;;5016329;28;20045;-78
2022/11/29 10:08:00;;;;;;;30.98;7.60;;;8.00;99.90;;;;;;5016703;28;20045;-83
2022/11/29 10:10:42;;;;;;;26.58;7.13;;;8.10;99.90;;;;;;5014687;28;20974;-82
2022/11/29 10:13:30;;;;;;;29.13;7.20;;;8.10;99.90;;;;;;5016685;28;20438;-82
2022/11/29 10:16:18;;;;;;;32.60;7.03;;;8.10;99.90;;;;;;5016969;28;20405;-82
2022/11/29 10:19:02;;;;;;;28.58;6.93;;;8.10;99.90;;;;;;5013430;28;20045;-81
2022/11/29 10:21:35;;;;;;;38.88;7.47;;;8.00;99.90;;;;;;5011516;28;20479;-81
2022/11/29 10:24:07;;;;;;;36.47;7.47;;;8.10;99.90;;;;;;5015585;28;20065;-81
2022/11/29 10:26:33;;;;;;;28.63;6.75;;;8.10;99.90;;;;;;5014858;28;20046;-81
2022/11/29 10:28:59;;;;;;;29.70;7.32;;;8.20;99.90;;;;;;5015254;28;20045;-81
2022/11/29 10:31:33;;;;;;;31.85;8.27;;;8.20;99.90;;;;;;5012787;28;20052;-81
2022/11/29 10:34:06;;;;;;;28.05;6.68;;;8.30;99.90;;;;;;5012734;28;20048;-81
2022/11/29 10:36:42;;;;;;;37.35;8.13;;;8.40;99.90;;;;;;5015054;28;20042;-80
2022/11/29 10:39:38;;;;;;;47.63;8.43;;;8.50;99.90;;;;;;5015450;28;20049;-81
2022/11/29 10:45:00;;;;;;;39.85;8.77;;;8.60;99.90;;;;;;5013656;28;20060;-81
2022/11/29 10:47:25;;;;;;;31.92;7.85;;;8.70;99.90;;;;;;5010241;28;20489;-81
2022/11/29 10:49:51;;;;;;;33.35;8.52;;;8.80;99.90;;;;;;5017731;28;20107;-80
2022/11/29 10:52:20;;;;;;;35.22;8.25;;;8.80;99.90;;;;;;5012385;28;20070;-81
2022/11/29 10:54:48;;;;;;;34.55;8.00;;;9.00;99.90;;;;;;5019028;28;20065;-80
2022/11/29 10:57:20;;;;;;;28.60;8.82;;;9.00;99.90;;;;;;5013798;28;20052;-80
2022/11/29 11:00:07;;;;;;;38.13;8.50;;;9.00;99.90;;;;;;5018087;28;20050;-81
2022/11/29 11:02:33;;;;;;;35.83;8.10;;;9.10;99.90;;;;;;5015609;28;20045;-82
2022/11/29 11:05:00;;;;;;;35.15;8.02;;;9.20;99.90;;;;;;5018486;28;20133;-81
2022/11/29 11:07:31;;;;;;;39.80;9.15;;;9.30;99.90;;;;;;5017049;28;20095;-81
2022/11/29 11:09:58;;;;;;;30.73;8.23;;;9.40;99.90;;;;;;5014412;28;20088;-81
2022/11/29 11:12:30;;;;;;;34.58;7.82;;;9.40;99.90;;;;;;5016192;28;20109;-81
2022/11/29 11:15:14;;;;;;;31.02;8.55;;;9.40;99.90;;;;;;5015564;28;20168;-80
2022/11/29 11:17:56;;;;;;;20.38;7.05;;;9.50;99.90;;;;;;5013140;28;20061;-81
2022/11/29 11:20:23;;;;;;;27.92;7.00;;;9.50;99.90;;;;;;5015290;28;20049;-81
2022/11/29 11:23:03;;;;;;;30.15;8.40;;;9.50;99.90;;;;;;5014721;28;20045;-80
2022/11/29 11:25:36;;;;;;;29.73;7.65;;;9.40;99.90;;;;;;5011449;28;20425;-82
2022/11/29 11:28:22;;;;;;;30.77;8.45;;;9.50;99.90;;;;;;5013930;28;20049;-83
2022/11/29 11:31:04;;;;;;;31.42;8.93;;;9.40;99.90;;;;;;5014418;28;20049;-78
2022/11/29 11:33:35;;;;;;;26.67;8.85;;;9.50;99.90;;;;;;5022948;28;20045;-78
2022/11/29 11:36:19;;;;;;;24.85;9.45;;;9.50;99.90;;;;;;5019453;28;20103;-78
2022/11/29 11:39:07;;;;;;;33.60;12.23;;;9.50;99.90;;;;;;5020500;28;20046;-79
2022/11/29 11:44:37;;;;;;;34.45;10.05;;;9.40;99.90;;;;;;5022590;28;20458;-78
2022/11/29 11:47:05;;;;;;;31.13;11.02;;;9.30;99.90;;;;;;5023477;28;20045;-79
2022/11/29 11:49:36;;;;;;;28.92;10.40;;;9.20;99.90;;;;;;5019867;28;20440;-81
2022/11/29 11:52:05;;;;;;;28.90;11.00;;;9.10;99.90;;;;;;5016867;28;20493;-81
2022/11/29 11:54:31;;;;;;;23.98;10.65;;;9.10;99.90;;;;;;5014479;28;20053;-80
2022/11/29 11:56:58;;;;;;;36.53;13.13;;;9.10;99.90;;;;;;5012285;28;20038;-80
2022/11/29 11:59:26;;;;;;;31.92;13.00;;;9.10;99.90;;;;;;5017797;28;20440;-80
2022/11/29 12:01:52;;;;;;;34.65;12.65;;;9.10;99.90;;;;;;5020235;28;20068;-80
2022/11/29 12:04:25;;;;;;;33.53;12.85;;;9.10;99.90;;;;;;5023326;28;20772;-80
2022/11/29 12:06:59;;;;;;;;;;;9.10;99.90;;;;;;5019364;28;20045;-80
2022/11/29 12:09:54;;;;;;;28.63;13.63;;;9.20;99.90;;;;;;5015586;28;19928;-80
2022/11/29 12:12:30;;;;;;;30.60;14.25;;;9.30;99.90;;;;;;5019120;28;20107;-80
2022/11/29 12:15:04;;;;;;;25.48;13.57;;;9.40;99.90;;;;;;5020224;28;20049;-80
2022/11/29 12:17:53;;;;;;;28.55;13.65;;;9.50;99.90;;;;;;5015147;28;20042;-80
2022/11/29 12:20:29;;;;;;;23.52;13.50;;;9.50;99.90;;;;;;5019324;28;20053;-80
2022/11/29 12:23:15;;;;;;;28.80;12.90;;;9.60;99.90;;;;;;5018859;28;20493;-80
2022/11/29 12:25:53;;;;;;;23.90;14.20;;;9.60;99.90;;;;;;5015654;28;20107;-80
2022/11/29 12:28:21;;;;;;;29.80;15.30;;;9.60;99.90;;;;;;5016715;28;20456;-79
2022/11/29 12:31:24;;;;;;;30.42;16.63;;;9.60;99.90;;;;;;5014268;28;20045;-79
2022/11/29 12:34:12;;;;;;;24.55;15.85;;;9.60;99.90;;;;;;5020062;28;20555;-79
2022/11/29 12:37:05;;;;;;;23.23;14.07;;;9.60;99.90;;;;;;5014621;28;20064;-79
2022/11/29 12:39:52;;;;;;;26.95;15.25;;;9.70;99.90;;;;;;5016833;28;20045;-82
2022/11/29 12:42:44;;;;;;;34.00;17.20;;;9.70;99.90;;;;;;5012197;28;20053;-82
2022/11/29 12:45:37;;;;;;;120.20;62.30;;;9.70;99.90;;;;;;5014969;28;20346;-82
2022/11/29 12:48:30;;;;;;;61.95;29.70;;;9.80;99.90;;;;;;5039965;28;20061;-80
2022/11/29 12:51:26;;;;;;;26.25;15.60;;;9.70;99.90;;;;;;5034283;28;20095;-83
2022/11/29 12:54:04;;;;;;;27.33;15.95;;;9.80;99.90;;;;;;5020754;28;20049;-82
2022/11/29 12:56:39;;;;;;;26.88;17.45;;;9.70;99.90;;;;;;5014235;28;20129;-82
2022/11/29 12:59:21;;;;;;;27.05;15.95;;;9.70;99.90;;;;;;5014111;28;20108;-83
2022/11/29 13:02:24;;;;;;;21.90;13.43;;;9.80;99.90;;;;;;5019104;28;20467;-83
2022/11/29 13:05:16;;;;;;;26.03;16.57;;;9.80;99.90;;;;;;5014528;28;20133;-82
2022/11/29 13:07:58;;;;;;;23.48;14.88;;;9.70;99.90;;;;;;4998702;28;20299;-82
2022/11/29 13:10:32;;;;;;;23.85;14.20;;;9.70;99.90;;;;;;5035296;28;20057;-82
2022/11/29 13:13:30;;;;;;;19.67;13.30;;;9.70;99.90;;;;;;5020411;28;20057;-83
2022/11/29 13:15:56;;;;;;;27.23;14.23;;;9.80;99.90;;;;;;5039147;28;20209;-83
2022/11/29 13:18:37;;;;;;;26.38;14.45;;;9.70;99.90;;;;;;5045896;28;20056;-83
2022/11/29 13:21:18;;;;;;;19.38;13.18;;;9.70;99.90;;;;;;5043627;28;20049;-80
2022/11/29 13:23:58;;;;;;;20.50;12.35;;;9.80;99.90;;;;;;5031769;28;20121;-83
2022/11/29 13:26:25;;;;;;;21.90;12.20;;;9.70;99.90;;;;;;5030066;28;20079;-83
2022/11/29 13:28:51;;;;;;;19.90;11.20;;;9.70;99.90;;;;;;5034475;28;20094;-85
2022/11/29 13:31:18;;;;;;;17.70;11.13;;;9.70;99.90;;;;;;5030469;28;21002;-84
2022/11/29 13:34:23;;;;;;;20.75;9.13;;;9.60;99.90;;;;;;5020458;28;20099;-84
2022/11/29 13:36:58;;;;;;;16.20;9.85;;;9.70;99.90;;;;;;5019077;28;20049;-84
2022/11/29 13:39:35;;;;;;;16.17;10.77;;;9.60;99.90;;;;;;5015861;28;20128;-84
2022/11/29 13:42:37;;;;;;;17.35;11.13;;;9.70;99.90;;;;;;5015991;28;20080;-84
2022/11/29 13:45:06;;;;;;;18.00;12.65;;;9.60;99.90;;;;;;5015572;28;21019;-85
2022/11/29 13:47:45;;;;;;;14.10;9.57;;;9.70;99.90;;;;;;5014425;28;20422;-84